createdAt,value
2022-08-17T00:02:26.734Z,25.94
2022-08-17T00:04:51.540Z,25.93
2022-08-17T00:07:17.974Z,25.93
2022-08-17T00:09:44.407Z,25.93
2022-08-17T00:12:42.807Z,25.93
2022-08-17T00:14:37.229Z,25.94
2022-08-17T00:17:03.655Z,25.92
2022-08-17T00:19:30.052Z,25.93
2022-08-17T00:22:34.560Z,25.94
2022-08-17T00:24:22.881Z,25.92
2022-08-17T00:26:49.429Z,25.92
2022-08-17T00:29:19.682Z,25.92
2022-08-17T00:31:42.235Z,25.93
2022-08-17T00:34:08.687Z,25.92
2022-08-17T00:36:35.177Z,25.92
2022-08-17T00:39:01.589Z,25.92
2022-08-17T00:41:27.996Z,25.92
2022-08-17T00:43:54.429Z,25.92
2022-08-17T00:46:20.817Z,25.91
2022-08-17T00:48:47.256Z,25.92
2022-08-17T00:51:13.675Z,25.91
2022-08-17T00:53:40.084Z,25.92
2022-08-17T00:56:06.543Z,25.92
2022-08-17T00:58:36.661Z,25.91
2022-08-17T01:00:59.433Z,25.93
2022-08-17T01:03:25.770Z,25.91
2022-08-17T01:05:52.170Z,25.91
2022-08-17T01:08:18.580Z,25.92
2022-08-17T01:10:58.415Z,25.93
2022-08-17T01:13:11.453Z,25.91
2022-08-17T01:15:37.890Z,25.91
2022-08-17T01:18:04.295Z,25.91
2022-08-17T01:20:30.713Z,25.91
2022-08-17T01:22:57.129Z,25.90
2022-08-17T01:25:23.522Z,25.91
2022-08-17T01:27:49.997Z,25.90
2022-08-17T01:30:58.596Z,25.90
2022-08-17T01:32:42.812Z,25.89
2022-08-17T01:35:09.251Z,25.91
2022-08-17T01:37:35.659Z,25.88
2022-08-17T01:40:02.179Z,25.89
2022-08-17T01:42:28.531Z,25.89
2022-08-17T01:44:54.939Z,25.88
2022-08-17T01:47:21.372Z,25.90
2022-08-17T01:49:47.778Z,25.90
2022-08-17T01:52:14.189Z,25.90
2022-08-17T01:54:40.617Z,25.89
2022-08-17T01:57:07.028Z,25.90
2022-08-17T01:59:33.447Z,25.91
2022-08-17T02:01:59.853Z,25.90
2022-08-17T02:04:26.320Z,25.89
2022-08-17T02:06:54.573Z,25.90
2022-08-17T02:09:19.190Z,25.89
2022-08-17T02:11:46.270Z,25.92
2022-08-17T02:14:12.022Z,25.88
2022-08-17T02:16:38.444Z,25.88
2022-08-17T02:19:05.069Z,25.87
2022-08-17T02:21:31.491Z,25.87
2022-08-17T02:23:57.895Z,25.88
2022-08-17T02:26:25.955Z,25.89
2022-08-17T02:28:50.710Z,25.89
2022-08-17T02:31:17.119Z,25.90
2022-08-17T02:33:43.831Z,25.88
2022-08-17T02:36:09.952Z,25.86
2022-08-17T02:38:37.446Z,25.89
2022-08-17T02:41:04.052Z,25.89
2022-08-17T02:43:30.429Z,25.90
2022-08-17T02:45:56.818Z,25.90
2022-08-17T02:48:30.437Z,25.88
2022-08-17T02:50:49.620Z,25.88
2022-08-17T02:53:16.004Z,25.87
2022-08-17T02:55:42.401Z,25.87
2022-08-17T02:58:08.775Z,25.84
2022-08-17T03:00:35.171Z,25.81
2022-08-17T03:03:01.577Z,25.80
2022-08-17T03:05:27.957Z,25.78
2022-08-17T03:07:54.368Z,25.78
2022-08-17T03:10:20.761Z,25.78
2022-08-17T03:12:47.303Z,25.76
2022-08-17T03:15:13.627Z,25.74
2022-08-17T03:17:40.022Z,25.75
2022-08-17T03:20:06.412Z,25.72
2022-08-17T03:22:36.165Z,25.72
2022-08-17T03:25:00.382Z,25.72
2022-08-17T03:27:25.574Z,25.70
2022-08-17T03:29:51.984Z,25.72
2022-08-17T03:32:18.360Z,25.69
2022-08-17T03:34:44.750Z,25.69
2022-08-17T03:37:11.131Z,25.70
2022-08-17T03:39:37.567Z,25.68
2022-08-17T03:42:03.956Z,25.70
2022-08-17T03:44:30.337Z,25.68
2022-08-17T03:46:56.725Z,25.68
2022-08-17T03:49:23.121Z,25.66
2022-08-17T03:51:49.566Z,25.67
2022-08-17T03:54:15.919Z,25.67
2022-08-17T03:56:42.306Z,25.67
2022-08-17T03:59:08.693Z,25.68
2022-08-17T04:01:35.219Z,25.71
2022-08-17T04:04:01.495Z,25.69
2022-08-17T04:06:27.905Z,25.70
2022-08-17T04:08:54.318Z,25.70
2022-08-17T04:11:21.656Z,25.65
2022-08-17T04:13:47.114Z,25.53
2022-08-17T04:16:13.502Z,25.38
2022-08-17T04:18:39.892Z,25.33
2022-08-17T04:21:06.312Z,25.25
2022-08-17T04:23:32.662Z,25.18
2022-08-17T04:25:59.041Z,25.15
2022-08-17T04:28:25.423Z,25.17
2022-08-17T04:30:51.804Z,25.15
2022-08-17T04:33:18.195Z,25.17
2022-08-17T04:35:44.573Z,25.19
2022-08-17T04:38:10.993Z,25.20
2022-08-17T04:40:37.368Z,25.22
2022-08-17T04:43:03.781Z,25.23
2022-08-17T04:45:32.273Z,25.26
2022-08-17T04:47:56.592Z,25.28
2022-08-17T04:50:22.995Z,25.27
2022-08-17T04:52:49.387Z,25.29
2022-08-17T04:55:15.762Z,25.32
2022-08-17T04:57:45.069Z,25.31
2022-08-17T05:00:09.529Z,25.35
2022-08-17T05:02:34.918Z,25.33
2022-08-17T05:05:01.294Z,25.32
2022-08-17T05:07:31.399Z,25.37
2022-08-17T05:09:54.259Z,25.38
2022-08-17T05:12:20.687Z,25.35
2022-08-17T05:14:47.120Z,25.37
2022-08-17T05:17:13.511Z,25.38
2022-08-17T05:19:39.886Z,25.37
2022-08-17T05:22:06.280Z,25.40
2022-08-17T05:24:38.617Z,25.40
2022-08-17T05:27:06.033Z,25.42
2022-08-17T05:29:35.108Z,25.40
2022-08-17T05:31:51.827Z,25.43
2022-08-17T05:34:18.210Z,25.43
2022-08-17T05:36:44.682Z,25.45
2022-08-17T05:39:15.784Z,25.45
2022-08-17T05:41:37.360Z,25.47
2022-08-17T05:44:05.573Z,25.45
2022-08-17T05:46:30.175Z,25.50
2022-08-17T05:48:56.550Z,25.44
2022-08-17T05:51:22.970Z,25.47
2022-08-17T05:53:49.573Z,25.46
2022-08-17T05:56:29.665Z,25.46
2022-08-17T05:58:42.398Z,25.51
2022-08-17T06:01:08.829Z,25.49
2022-08-17T06:03:35.172Z,25.49
2022-08-17T06:06:01.599Z,25.52
2022-08-17T06:08:28.061Z,25.51
2022-08-17T06:10:54.478Z,25.50
2022-08-17T06:13:20.888Z,25.53
2022-08-17T06:15:47.288Z,25.53
2022-08-17T06:18:17.270Z,25.54
2022-08-17T06:20:40.062Z,25.51
2022-08-17T06:23:06.439Z,25.54
2022-08-17T06:25:32.839Z,25.55
2022-08-17T06:27:59.226Z,25.53
2022-08-17T06:30:25.621Z,25.49
2022-08-17T06:32:52.250Z,25.43
2022-08-17T06:35:18.430Z,25.41
2022-08-17T06:37:44.868Z,25.39
2022-08-17T06:40:11.333Z,25.34
2022-08-17T06:42:59.889Z,25.34
2022-08-17T06:45:04.067Z,25.36
2022-08-17T06:47:30.572Z,25.31
2022-08-17T06:49:56.967Z,25.29
2022-08-17T06:52:46.047Z,25.34
2022-08-17T06:54:49.837Z,25.34
2022-08-17T06:57:16.223Z,25.37
2022-08-17T06:59:55.515Z,25.42
2022-08-17T07:02:09.001Z,25.42
2022-08-17T07:04:35.423Z,25.44
2022-08-17T07:07:01.801Z,25.44
2022-08-17T07:09:28.226Z,25.45
2022-08-17T07:11:54.596Z,25.43
2022-08-17T07:14:20.988Z,25.46
2022-08-17T07:16:47.421Z,25.49
2022-08-17T07:19:13.764Z,25.49
2022-08-17T07:21:40.187Z,25.51
2022-08-17T07:24:06.576Z,25.51
2022-08-17T07:26:32.971Z,25.55
2022-08-17T07:28:59.385Z,25.57
2022-08-17T07:31:25.777Z,25.57
2022-08-17T07:33:52.251Z,25.57
2022-08-17T07:36:18.642Z,25.58
2022-08-17T07:38:45.040Z,25.59
2022-08-17T07:41:11.429Z,25.60
2022-08-17T07:43:37.932Z,25.54
2022-08-17T07:46:04.306Z,25.56
2022-08-17T07:48:30.698Z,25.53
2022-08-17T07:50:57.098Z,25.48
2022-08-17T07:53:23.476Z,25.43
2022-08-17T07:55:49.899Z,25.45
2022-08-17T07:58:16.318Z,25.44
2022-08-17T08:00:42.711Z,25.37
2022-08-17T08:03:09.118Z,25.42
2022-08-17T08:05:50.083Z,25.37
2022-08-17T08:08:01.948Z,25.36
2022-08-17T08:10:28.331Z,25.38
2022-08-17T08:12:54.753Z,25.45
2022-08-17T08:15:21.252Z,25.49
2022-08-17T08:17:47.682Z,25.49
2022-08-17T08:20:50.852Z,25.47
2022-08-17T08:22:42.593Z,25.47
2022-08-17T08:25:08.990Z,25.45
2022-08-17T08:27:35.393Z,25.43
2022-08-17T08:30:01.771Z,25.43
2022-08-17T08:32:28.164Z,25.41
2022-08-17T08:35:01.716Z,25.42
2022-08-17T08:37:32.617Z,25.45
2022-08-17T08:39:47.396Z,25.46
2022-08-17T08:42:13.707Z,25.46
2022-08-17T08:44:59.958Z,25.49
2022-08-17T08:47:06.492Z,25.50
2022-08-17T08:50:01.175Z,25.53
2022-08-17T08:51:59.256Z,25.55
2022-08-17T08:54:27.026Z,25.49
2022-08-17T08:57:21.547Z,25.48
2022-08-17T08:59:18.399Z,25.58
2022-08-17T09:01:44.908Z,25.52
2022-08-17T09:04:24.068Z,25.52
2022-08-17T09:06:39.779Z,25.48
2022-08-17T09:09:04.032Z,25.49
2022-08-17T09:11:30.424Z,25.39
2022-08-17T09:13:56.874Z,25.39
2022-08-17T09:16:23.261Z,25.39
2022-08-17T09:19:02.720Z,25.36
2022-08-17T09:21:18.170Z,25.32
2022-08-17T09:23:42.534Z,25.31
2022-08-17T09:26:09.058Z,25.32
2022-08-17T09:28:35.450Z,25.27
2022-08-17T09:31:01.838Z,25.26
2022-08-17T09:33:28.221Z,25.28
2022-08-17T09:35:54.607Z,25.36
2022-08-17T09:38:21.108Z,25.26
2022-08-17T09:40:47.488Z,25.29
2022-08-17T09:43:13.938Z,25.35
2022-08-17T09:45:40.330Z,25.41
2022-08-17T09:48:07.923Z,25.35
2022-08-17T09:51:03.894Z,25.47
2022-08-17T09:52:59.512Z,25.44
2022-08-17T09:55:25.903Z,25.45
2022-08-17T09:57:52.391Z,25.41
2022-08-17T10:00:18.725Z,25.42
2022-08-17T10:02:45.112Z,25.43
2022-08-17T10:05:11.567Z,25.49
2022-08-17T10:07:37.957Z,25.52
2022-08-17T10:10:04.361Z,25.53
2022-08-17T10:12:30.751Z,25.49
2022-08-17T10:14:57.132Z,25.49
2022-08-17T10:17:23.633Z,25.50
2022-08-17T10:19:50.021Z,25.48
2022-08-17T10:22:35.390Z,25.52
2022-08-17T10:25:01.861Z,25.49
2022-08-17T10:27:11.424Z,25.50
2022-08-17T10:29:48.519Z,25.46
2022-08-17T10:32:04.230Z,25.45
2022-08-17T10:34:30.590Z,25.40
2022-08-17T10:36:56.996Z,25.37
2022-08-17T10:39:23.388Z,25.31
2022-08-17T10:41:49.784Z,25.37
2022-08-17T10:44:37.094Z,25.37
2022-08-17T10:46:42.574Z,25.37
2022-08-17T10:49:08.970Z,25.37
2022-08-17T10:51:35.360Z,25.40
2022-08-17T10:54:01.763Z,25.39
2022-08-17T10:56:28.208Z,25.42
2022-08-17T10:58:54.600Z,25.41
2022-08-17T11:01:21.022Z,25.39
2022-08-17T11:03:47.384Z,25.39
2022-08-17T11:06:13.812Z,25.40
2022-08-17T11:08:40.181Z,25.43
2022-08-17T11:11:06.575Z,25.40
2022-08-17T11:13:32.974Z,25.43
2022-08-17T11:16:02.366Z,25.48
2022-08-17T11:18:25.862Z,25.42
2022-08-17T11:20:52.332Z,25.45
2022-08-17T11:23:18.728Z,25.43
2022-08-17T11:25:45.201Z,25.42
2022-08-17T11:28:11.607Z,25.45
2022-08-17T11:30:38.004Z,25.51
2022-08-17T11:33:04.407Z,25.48
2022-08-17T11:35:30.865Z,25.48
2022-08-17T11:37:57.213Z,25.52
2022-08-17T11:40:23.620Z,25.56
2022-08-17T11:42:50.142Z,25.61
2022-08-17T11:45:19.505Z,25.61
2022-08-17T11:47:42.814Z,25.57
2022-08-17T11:50:09.307Z,25.55
2022-08-17T11:52:35.637Z,25.55
2022-08-17T11:55:17.995Z,25.55
2022-08-17T11:57:28.498Z,25.50
2022-08-17T11:59:54.893Z,25.53
2022-08-17T12:02:21.394Z,25.50
2022-08-17T12:04:48.023Z,25.48
2022-08-17T12:07:14.366Z,25.45
2022-08-17T12:09:40.899Z,25.46
2022-08-17T12:12:12.682Z,25.44
2022-08-17T12:15:05.842Z,25.48
2022-08-17T12:17:00.079Z,25.50
2022-08-17T12:19:26.468Z,25.50
2022-08-17T12:21:52.871Z,25.51
2022-08-17T12:24:19.404Z,25.54
2022-08-17T12:26:45.800Z,25.55
2022-08-17T12:29:39.036Z,25.59
2022-08-17T12:31:38.600Z,25.64
2022-08-17T12:34:05.005Z,25.64
2022-08-17T12:36:31.381Z,25.69
2022-08-17T12:38:57.790Z,25.76
2022-08-17T12:41:24.199Z,25.72
2022-08-17T12:43:50.608Z,25.72
2022-08-17T12:46:16.984Z,25.67
2022-08-17T12:48:58.667Z,25.61
2022-08-17T12:51:09.852Z,25.59
2022-08-17T12:53:36.241Z,25.68
2022-08-17T12:56:02.622Z,25.55
2022-08-17T12:58:29.051Z,25.51
2022-08-17T13:00:55.448Z,25.49
2022-08-17T13:03:21.827Z,25.47
2022-08-17T13:05:48.214Z,25.48
2022-08-17T13:08:14.612Z,25.56
2022-08-17T13:10:40.996Z,25.52
2022-08-17T13:13:07.452Z,25.54
2022-08-17T13:15:33.851Z,25.55
2022-08-17T13:18:00.240Z,25.54
2022-08-17T13:20:26.653Z,25.58
2022-08-17T13:22:53.042Z,25.54
2022-08-17T13:25:19.518Z,25.61
2022-08-17T13:27:45.946Z,25.58
2022-08-17T13:30:12.300Z,25.57
2022-08-17T13:32:39.907Z,25.58
2022-08-17T13:35:15.209Z,25.59
2022-08-17T13:37:31.491Z,25.61
2022-08-17T13:39:57.934Z,25.64
2022-08-17T13:42:24.263Z,25.64
2022-08-17T13:44:50.679Z,25.64
2022-08-17T13:47:17.040Z,25.61
2022-08-17T13:49:48.793Z,25.61
2022-08-17T13:52:09.945Z,25.53
2022-08-17T13:54:36.329Z,25.47
2022-08-17T13:57:02.722Z,25.51
2022-08-17T13:59:53.642Z,25.49
2022-08-17T14:01:55.667Z,25.48
2022-08-17T14:04:22.013Z,25.46
2022-08-17T14:06:53.416Z,25.43
2022-08-17T14:09:14.925Z,25.44
2022-08-17T14:11:41.307Z,25.43
2022-08-17T14:14:07.695Z,25.46
2022-08-17T14:16:34.204Z,25.41
2022-08-17T14:19:00.577Z,25.48
2022-08-17T14:21:28.615Z,25.40
2022-08-17T14:23:54.932Z,25.38
2022-08-17T14:26:19.788Z,25.35
2022-08-17T14:28:56.324Z,25.33
2022-08-17T14:31:12.588Z,25.30
2022-08-17T14:33:38.965Z,25.32
2022-08-17T14:36:05.369Z,25.34
2022-08-17T14:38:31.754Z,25.34
2022-08-17T14:40:58.142Z,25.33
2022-08-17T14:43:24.527Z,25.32
2022-08-17T14:45:50.915Z,25.37
2022-08-17T14:48:17.300Z,25.43
2022-08-17T14:50:43.763Z,25.37
2022-08-17T14:53:10.484Z,25.34
2022-08-17T14:55:36.892Z,25.33
2022-08-17T14:58:03.266Z,25.34
2022-08-17T15:00:29.808Z,25.34
2022-08-17T15:02:56.182Z,25.35
2022-08-17T15:05:22.568Z,25.34
2022-08-17T15:07:48.976Z,25.33
2022-08-17T15:10:15.354Z,25.36
2022-08-17T15:12:41.762Z,25.41
2022-08-17T15:15:08.170Z,25.45
2022-08-17T15:17:45.277Z,25.46
2022-08-17T15:20:00.935Z,25.45
2022-08-17T15:22:29.246Z,25.42
2022-08-17T15:24:53.790Z,25.40
2022-08-17T15:27:31.510Z,25.49
2022-08-17T15:29:46.570Z,25.45
2022-08-17T15:32:12.977Z,25.44
2022-08-17T15:34:39.366Z,25.42
2022-08-17T15:37:05.752Z,25.40
2022-08-17T15:39:32.189Z,25.37
2022-08-17T15:41:58.932Z,25.35
2022-08-17T15:44:32.399Z,25.32
2022-08-17T15:46:51.326Z,25.31
2022-08-17T15:49:17.715Z,25.29
2022-08-17T15:51:44.107Z,25.30
2022-08-17T15:54:18.828Z,25.29
2022-08-17T15:56:36.956Z,25.27
2022-08-17T15:59:03.346Z,25.22
2022-08-17T16:02:25.248Z,25.27
2022-08-17T16:04:03.954Z,25.25
2022-08-17T16:06:22.498Z,25.25
2022-08-17T16:08:48.947Z,25.20
2022-08-17T16:11:15.463Z,25.19
2022-08-17T16:13:41.852Z,25.20
2022-08-17T16:16:08.243Z,25.18
2022-08-17T16:18:34.622Z,25.26
2022-08-17T16:21:01.009Z,25.29
2022-08-17T16:23:27.391Z,25.29
2022-08-17T16:25:54.529Z,25.33
2022-08-17T16:28:20.156Z,25.33
2022-08-17T16:30:46.543Z,25.22
2022-08-17T16:33:12.948Z,25.15
2022-08-17T16:35:39.370Z,25.15
2022-08-17T16:38:07.219Z,25.12
2022-08-17T16:40:35.773Z,25.13
2022-08-17T16:42:58.609Z,25.13
2022-08-17T16:45:25.002Z,25.14
2022-08-17T16:47:52.448Z,25.13
2022-08-17T16:50:17.793Z,25.17
2022-08-17T16:52:44.268Z,25.12
2022-08-17T16:55:10.605Z,25.17
2022-08-17T16:57:36.994Z,25.15
2022-08-17T17:00:03.371Z,25.15
2022-08-17T17:02:29.768Z,25.19
2022-08-17T17:04:56.264Z,25.20
2022-08-17T17:07:22.649Z,25.22
2022-08-17T17:09:49.032Z,25.24
2022-08-17T17:12:15.424Z,25.23
2022-08-17T17:14:41.815Z,25.24
2022-08-17T17:17:08.197Z,25.26
2022-08-17T17:19:35.780Z,25.26
2022-08-17T17:22:00.965Z,25.32
2022-08-17T17:24:28.868Z,25.36
2022-08-17T17:26:54.306Z,25.35
2022-08-17T17:29:20.689Z,25.40
2022-08-17T17:31:47.078Z,25.40
2022-08-17T17:34:13.570Z,25.46
2022-08-17T17:36:39.969Z,25.47
2022-08-17T17:39:06.360Z,25.49
2022-08-17T17:41:32.763Z,25.49
2022-08-17T17:44:01.871Z,25.52
2022-08-17T17:46:28.713Z,25.53
2022-08-17T17:48:51.924Z,25.53
2022-08-17T17:52:06.806Z,25.55
2022-08-17T17:53:44.710Z,25.56
2022-08-17T17:56:43.125Z,25.57
2022-08-17T17:58:37.591Z,25.58
2022-08-17T18:01:03.988Z,25.60
2022-08-17T18:03:30.401Z,25.62
2022-08-17T18:05:56.787Z,25.63
2022-08-17T18:08:31.987Z,25.64
2022-08-17T18:10:49.663Z,25.67
2022-08-17T18:13:16.054Z,25.70
2022-08-17T18:15:42.433Z,25.72
2022-08-17T18:18:08.822Z,25.75
2022-08-17T18:20:43.489Z,25.75
2022-08-17T18:23:01.644Z,25.78
2022-08-17T18:25:28.025Z,25.78
2022-08-17T18:27:54.442Z,25.80
2022-08-17T18:30:23.375Z,25.81
2022-08-17T18:32:49.762Z,25.81
2022-08-17T18:35:16.154Z,25.83
2022-08-17T18:37:42.574Z,25.84
2022-08-17T18:40:09.026Z,25.85
2022-08-17T18:42:35.379Z,25.87
2022-08-17T18:45:01.772Z,25.86
2022-08-17T18:47:28.155Z,25.88
2022-08-17T18:49:54.539Z,25.88
2022-08-17T18:52:20.924Z,25.89
2022-08-17T18:54:47.305Z,25.89
2022-08-17T18:57:13.700Z,25.88
2022-08-17T18:59:40.164Z,25.89
2022-08-17T19:02:13.719Z,25.88
2022-08-17T19:04:34.108Z,25.90
2022-08-17T19:06:59.466Z,25.90
2022-08-17T19:09:25.849Z,25.91
2022-08-17T19:11:52.241Z,25.92
2022-08-17T19:14:18.631Z,25.93
2022-08-17T19:16:45.102Z,25.93
2022-08-17T19:19:11.509Z,25.93
2022-08-17T19:21:37.895Z,25.94
2022-08-17T19:24:04.282Z,25.95
2022-08-17T19:26:50.531Z,25.94
2022-08-17T19:28:57.056Z,25.95
2022-08-17T19:31:23.530Z,25.95
2022-08-17T19:33:49.925Z,25.95
2022-08-17T19:36:16.315Z,25.96
2022-08-17T19:38:42.700Z,25.96
2022-08-17T19:41:09.110Z,25.96
2022-08-17T19:43:35.486Z,25.96
2022-08-17T19:46:01.928Z,25.96
2022-08-17T19:48:28.309Z,25.97
2022-08-17T19:50:54.725Z,25.97
2022-08-17T19:53:21.113Z,25.98
2022-08-17T19:55:47.494Z,25.98
2022-08-17T19:58:18.076Z,25.98
2022-08-17T20:00:40.284Z,25.98
2022-08-17T20:03:06.696Z,25.99
2022-08-17T20:05:48.738Z,25.97
2022-08-17T20:07:59.442Z,25.98
2022-08-17T20:10:25.823Z,25.98
2022-08-17T20:12:52.201Z,25.96
2022-08-17T20:15:18.597Z,25.97
2022-08-17T20:17:45.055Z,25.97
2022-08-17T20:20:19.991Z,25.96
2022-08-17T20:22:51.972Z,25.98
2022-08-17T20:25:04.209Z,25.97
2022-08-17T20:27:31.683Z,25.98
2022-08-17T20:29:57.051Z,25.98
2022-08-17T20:32:23.515Z,25.98
2022-08-17T20:34:49.912Z,25.99
2022-08-17T20:37:16.315Z,25.99
2022-08-17T20:39:42.843Z,25.99
2022-08-17T20:42:09.207Z,25.98
2022-08-17T20:44:35.605Z,25.98
2022-08-17T20:47:01.988Z,25.98
2022-08-17T20:49:28.382Z,25.98
2022-08-17T20:52:01.509Z,25.99
2022-08-17T20:54:21.169Z,25.99
2022-08-17T20:56:47.546Z,25.99
2022-08-17T20:59:13.934Z,25.99
2022-08-17T21:01:40.419Z,26.00
2022-08-17T21:04:06.742Z,26.00
2022-08-17T21:06:33.121Z,26.00
2022-08-17T21:08:59.513Z,25.99
2022-08-17T21:11:57.146Z,25.99
2022-08-17T21:13:52.289Z,26.00
2022-08-17T21:16:18.670Z,26.00
2022-08-17T21:18:45.091Z,26.00
2022-08-17T21:21:16.880Z,26.00
2022-08-17T21:23:37.952Z,25.99
2022-08-17T21:26:04.429Z,26.00
2022-08-17T21:28:34.135Z,26.01
2022-08-17T21:30:57.233Z,26.02
2022-08-17T21:33:23.739Z,26.01
2022-08-17T21:35:50.117Z,26.02
2022-08-17T21:38:16.533Z,26.01
2022-08-17T21:40:42.909Z,26.00
2022-08-17T21:43:09.361Z,26.01
2022-08-17T21:45:35.754Z,26.02
2022-08-17T21:48:02.132Z,26.01
2022-08-17T21:50:28.592Z,26.02
2022-08-17T21:52:54.975Z,26.01
2022-08-17T21:55:21.367Z,26.01
2022-08-17T21:57:53.250Z,26.01
2022-08-17T22:00:14.258Z,26.01
2022-08-17T22:02:40.653Z,26.01
2022-08-17T22:05:07.041Z,26.00
2022-08-17T22:07:33.455Z,26.00
2022-08-17T22:09:59.839Z,26.00
2022-08-17T22:12:26.228Z,26.00
2022-08-17T22:14:54.109Z,26.00
2022-08-17T22:17:19.018Z,26.01
2022-08-17T22:19:45.401Z,26.01
2022-08-17T22:22:11.785Z,25.99
2022-08-17T22:24:38.171Z,26.00
2022-08-17T22:27:04.555Z,25.98
2022-08-17T22:29:30.982Z,26.00
2022-08-17T22:31:57.370Z,25.99
2022-08-17T22:34:23.750Z,25.98
2022-08-17T22:36:50.137Z,25.98
2022-08-17T22:39:16.520Z,25.99
2022-08-17T22:41:42.909Z,25.98
2022-08-17T22:44:09.285Z,25.98
2022-08-17T22:46:35.673Z,25.98
2022-08-17T22:49:02.058Z,25.98
2022-08-17T22:51:28.438Z,25.97
2022-08-17T22:53:54.814Z,25.98
2022-08-17T22:56:21.206Z,25.97
2022-08-17T22:58:58.988Z,25.97
2022-08-17T23:01:13.977Z,25.96
2022-08-17T23:03:40.358Z,25.96
2022-08-17T23:06:06.883Z,25.95
2022-08-17T23:08:33.253Z,25.96
2022-08-17T23:10:59.635Z,25.96
2022-08-17T23:13:26.043Z,25.95
2022-08-17T23:15:52.421Z,25.96
2022-08-17T23:18:18.807Z,25.96
2022-08-17T23:20:45.194Z,25.94
2022-08-17T23:23:11.589Z,25.93
2022-08-17T23:25:37.975Z,25.95
2022-08-17T23:28:04.360Z,25.95
2022-08-17T23:30:30.746Z,25.96
2022-08-17T23:32:57.130Z,25.93
2022-08-17T23:35:39.737Z,25.94
2022-08-17T23:37:50.091Z,25.94
2022-08-17T23:40:16.334Z,25.95
2022-08-17T23:42:46.453Z,25.96
2022-08-17T23:45:09.078Z,25.96
2022-08-17T23:47:35.458Z,25.96
2022-08-17T23:50:01.993Z,25.95
2022-08-17T23:52:28.249Z,25.98
2022-08-17T23:54:56.267Z,25.95
2022-08-17T23:57:33.769Z,25.93
2022-08-17T23:59:47.503Z,25.96
